Time;durP1;ratioP1;P1;durP2;ratioP2;P2;SDS_P1;SDS_P2;PMS_P1;PMS_P2;Temp;Humidity;BMP_temperature;BMP_pressure;BME280_temperature;BME280_humidity;BME280_pressure;Samples;Min_cycle;Max_cycle;Signal;HPM_P1;HPM_P2
2023/08/08 00:00:44;;;;;;;1999.90;999.90;;;10.20;94.20;;;;;;5032940;28;20040;-73
2023/08/08 00:03:10;;;;;;;1999.90;999.90;;;10.30;94.30;;;;;;5031090;28;20025;-72
2023/08/08 00:05:35;;;;;;;1999.90;999.90;;;10.20;94.20;;;;;;5029114;28;20761;-73
2023/08/08 00:08:01;;;;;;;1999.90;999.90;;;10.30;94.20;;;;;;5034437;28;20048;-73
2023/08/08 00:10:26;;;;;;;1999.90;999.90;;;10.20;94.00;;;;;;5032590;28;20120;-73
2023/08/08 00:12:52;;;;;;;1999.90;999.90;;;10.20;94.10;;;;;;5029786;28;20491;-73
2023/08/08 00:15:18;;;;;;;1999.90;999.90;;;10.20;94.00;;;;;;5032649;28;20037;-73
2023/08/08 00:17:43;;;;;;;1999.90;999.90;;;10.20;94.50;;;;;;5033044;28;20032;-73
2023/08/08 00:20:10;;;;;;;1999.90;999.90;;;10.20;94.20;;;;;;5035333;28;20039;-73
2023/08/08 00:22:36;;;;;;;1999.90;999.90;;;10.20;94.10;;;;;;5038820;28;20044;-73
2023/08/08 00:25:01;;;;;;;1999.90;999.90;;;10.20;94.10;;;;;;5046896;28;20033;-72
2023/08/08 00:27:27;;;;;;;1999.90;999.90;;;10.20;94.10;;;;;;5050454;28;20044;-73
2023/08/08 00:29:54;;;;;;;1999.90;999.90;;;10.20;94.10;;;;;;5038017;28;20442;-73
2023/08/08 00:32:20;;;;;;;1999.90;999.90;;;10.20;94.10;;;;;;5037876;28;20044;-73
2023/08/08 00:34:46;;;;;;;1999.90;999.90;;;10.20;94.00;;;;;;5039726;28;20034;-73
2023/08/08 00:37:11;;;;;;;1999.90;999.90;;;10.10;93.90;;;;;;5036139;28;20049;-73
2023/08/08 00:39:37;;;;;;;1999.90;999.90;;;10.20;94.00;;;;;;5035360;28;20108;-73
2023/08/08 00:42:03;;;;;;;1999.90;999.90;;;10.30;93.80;;;;;;5034988;28;20124;-74
2023/08/08 00:44:38;;;;;;;1999.90;999.90;;;10.30;93.60;;;;;;5035317;28;20491;-72
2023/08/08 00:47:04;;;;;;;1999.90;999.90;;;10.40;93.70;;;;;;5033525;28;20451;-72
2023/08/08 00:49:29;;;;;;;1999.90;999.90;;;10.30;93.60;;;;;;5035940;28;20113;-73
2023/08/08 00:51:55;;;;;;;1999.90;999.90;;;10.40;93.50;;;;;;5034904;28;20076;-72
2023/08/08 00:54:21;;;;;;;1999.90;999.90;;;10.40;93.60;;;;;;5032907;28;20115;-73
2023/08/08 00:56:47;;;;;;;1999.90;999.90;;;10.50;93.40;;;;;;5039296;28;20041;-72
2023/08/08 00:59:15;;;;;;;1999.90;999.90;;;10.50;93.40;;;;;;5038497;28;20029;-74
2023/08/08 01:01:41;;;;;;;1999.90;999.90;;;10.40;93.20;;;;;;5036909;28;20041;-73
2023/08/08 01:04:07;;;;;;;1999.90;999.90;;;10.50;93.40;;;;;;5035055;28;20025;-72
2023/08/08 01:07:04;;;;;;;1999.90;999.90;;;10.40;93.40;;;;;;5038560;28;20847;-72
2023/08/08 01:09:38;;;;;;;1999.90;999.90;;;10.40;93.40;;;;;;5032240;28;20609;-73
2023/08/08 01:12:08;;;;;;;1999.90;999.90;;;10.50;93.40;;;;;;5037677;28;20063;-73
2023/08/08 01:14:35;;;;;;;1999.90;999.90;;;10.40;93.20;;;;;;5036508;28;20120;-73
2023/08/08 01:17:02;;;;;;;1999.90;999.90;;;10.50;93.20;;;;;;5034477;28;20034;-73
2023/08/08 01:19:30;;;;;;;1999.90;999.90;;;10.50;93.30;;;;;;5035646;28;20365;-73
2023/08/08 01:22:02;;;;;;;1999.90;999.90;;;10.60;93.30;;;;;;5037291;28;20033;-73
2023/08/08 01:24:30;;;;;;;1999.90;999.90;;;10.50;92.80;;;;;;5037712;28;20029;-72
2023/08/08 01:27:00;;;;;;;1999.90;999.90;;;10.60;92.90;;;;;;5035448;28;20559;-73
2023/08/08 01:29:26;;;;;;;;;;;10.60;92.80;;;;;;5032508;28;20033;-72
2023/08/08 01:31:52;;;;;;;1999.90;999.90;;;10.60;92.90;;;;;;5031649;28;19913;-73
2023/08/08 01:34:18;;;;;;;1999.90;999.90;;;10.60;92.90;;;;;;5031022;28;20385;-73
2023/08/08 01:36:49;;;;;;;1999.90;999.90;;;10.70;92.70;;;;;;5037477;28;20050;-72
2023/08/08 01:39:20;;;;;;;1999.90;999.90;;;10.70;92.50;;;;;;5037797;28;20024;-72
2023/08/08 01:41:48;;;;;;;1999.90;999.90;;;10.60;92.80;;;;;;5041355;28;20029;-73
2023/08/08 01:44:13;;;;;;;1999.90;999.90;;;10.70;92.70;;;;;;5037255;28;20492;-73
2023/08/08 01:46:40;;;;;;;1999.90;999.90;;;10.60;92.80;;;;;;5049330;28;20034;-72
2023/08/08 01:49:05;;;;;;;1999.90;999.90;;;10.60;92.80;;;;;;5046607;28;20172;-73
2023/08/08 01:51:31;;;;;;;1999.90;999.90;;;10.60;92.80;;;;;;5037206;28;20108;-72
2023/08/08 01:53:57;;;;;;;1999.90;999.90;;;10.60;92.80;;;;;;5036919;28;20037;-73
2023/08/08 01:56:22;;;;;;;1999.90;999.90;;;10.70;92.60;;;;;;5035134;28;20084;-73
2023/08/08 01:58:48;;;;;;;1999.90;999.90;;;10.60;92.50;;;;;;5035732;28;20121;-72
2023/08/08 02:01:13;;;;;;;1999.90;999.90;;;10.70;92.70;;;;;;5035968;28;20148;-72
2023/08/08 02:03:39;;;;;;;1999.90;999.90;;;10.70;92.80;;;;;;5034615;28;20076;-73
2023/08/08 02:06:05;;;;;;;1999.90;999.90;;;10.70;92.60;;;;;;5033277;28;20059;-72
2023/08/08 02:08:30;;;;;;;1999.90;999.90;;;10.70;92.50;;;;;;5035048;28;20112;-73
2023/08/08 02:10:56;;;;;;;1999.90;999.90;;;10.70;92.40;;;;;;5034484;28;20048;-72
2023/08/08 02:13:22;;;;;;;1999.90;999.90;;;10.70;92.20;;;;;;5032887;28;20084;-73
2023/08/08 02:15:47;;;;;;;1999.90;999.90;;;10.70;92.10;;;;;;5034417;28;20041;-73
2023/08/08 02:18:13;;;;;;;1999.90;999.90;;;10.70;92.10;;;;;;5040460;28;20476;-73
2023/08/08 02:20:39;;;;;;;1999.90;999.90;;;10.70;91.90;;;;;;5037964;28;20364;-74
2023/08/08 02:23:04;;;;;;;1999.90;999.90;;;10.80;91.80;;;;;;5035140;28;20666;-72
2023/08/08 02:25:30;;;;;;;1999.90;999.90;;;10.70;91.70;;;;;;5038705;28;20128;-73
2023/08/08 02:27:56;;;;;;;1999.90;999.90;;;10.70;91.70;;;;;;5036572;28;20071;-74
2023/08/08 02:30:22;;;;;;;1999.90;999.90;;;10.80;91.60;;;;;;5038002;28;20037;-73
2023/08/08 02:32:48;;;;;;;1999.90;999.90;;;10.70;91.80;;;;;;5030755;28;20067;-73
2023/08/08 02:35:13;;;;;;;1999.90;999.90;;;10.70;91.70;;;;;;5035176;28;20057;-73
2023/08/08 02:37:39;;;;;;;1999.90;999.90;;;10.80;91.80;;;;;;5033570;28;20123;-73
2023/08/08 02:40:06;;;;;;;1999.90;999.90;;;10.80;91.70;;;;;;5034636;28;20068;-73
2023/08/08 02:42:32;;;;;;;1999.90;999.90;;;10.70;91.80;;;;;;5031720;28;20043;-72
2023/08/08 02:44:57;;;;;;;1999.90;999.90;;;10.80;91.80;;;;;;5031887;28;20238;-73
2023/08/08 02:47:24;;;;;;;1999.90;999.90;;;10.80;91.90;;;;;;5032537;28;20033;-73
2023/08/08 02:49:50;;;;;;;1999.90;999.90;;;10.80;91.70;;;;;;5030905;28;20041;-73
2023/08/08 02:52:16;;;;;;;1999.90;999.90;;;10.80;91.60;;;;;;5032957;28;20044;-73
2023/08/08 02:54:41;;;;;;;1999.90;999.90;;;10.80;91.60;;;;;;5033968;28;20067;-74
2023/08/08 02:57:07;;;;;;;1999.90;999.90;;;10.70;91.60;;;;;;5031556;28;20665;-73
2023/08/08 02:59:32;;;;;;;1999.90;999.90;;;10.70;91.70;;;;;;5042774;28;20479;-73
2023/08/08 03:01:58;;;;;;;1999.90;999.90;;;10.70;91.40;;;;;;5034414;28;20037;-73
2023/08/08 03:04:24;;;;;;;1999.90;999.90;;;10.70;91.70;;;;;;5037698;28;20029;-74
2023/08/08 03:06:49;;;;;;;1999.90;999.90;;;10.70;91.50;;;;;;5041172;28;20057;-72
2023/08/08 03:09:15;;;;;;;1999.90;999.90;;;10.70;91.60;;;;;;5047750;28;20488;-74
2023/08/08 03:11:43;;;;;;;1999.90;999.90;;;10.70;91.50;;;;;;5032112;28;20270;-74
2023/08/08 03:14:09;;;;;;;1999.90;999.90;;;10.60;91.50;;;;;;5033550;28;20104;-73
2023/08/08 03:16:35;;;;;;;1999.90;999.90;;;10.60;91.30;;;;;;5033927;28;20029;-73
2023/08/08 03:19:00;;;;;;;1999.90;999.90;;;10.50;91.40;;;;;;5035089;28;20108;-73
2023/08/08 03:21:26;;;;;;;1999.90;999.90;;;10.60;91.70;;;;;;5037520;28;20028;-73
2023/08/08 03:23:51;;;;;;;1999.90;999.90;;;10.50;91.20;;;;;;5028602;28;20037;-73
2023/08/08 03:26:18;;;;;;;1999.90;999.90;;;10.60;91.30;;;;;;5032463;28;20482;-73
2023/08/08 03:28:43;;;;;;;1999.90;999.90;;;10.50;91.20;;;;;;5028974;28;20108;-74
2023/08/08 03:31:09;;;;;;;1999.90;999.90;;;10.50;91.50;;;;;;5030540;28;20128;-74
2023/08/08 03:33:35;;;;;;;1999.90;999.90;;;10.50;91.30;;;;;;5037722;28;20044;-73
2023/08/08 03:36:00;;;;;;;1999.90;999.90;;;10.50;91.10;;;;;;5037460;28;20049;-73
2023/08/08 03:38:26;;;;;;;1999.90;999.90;;;10.50;91.10;;;;;;5033792;28;20105;-74
2023/08/08 03:40:52;;;;;;;1999.90;999.90;;;10.50;91.30;;;;;;5033077;28;20038;-74
2023/08/08 03:43:17;;;;;;;1999.90;999.90;;;10.50;91.00;;;;;;5035875;28;20113;-74
2023/08/08 03:45:45;;;;;;;1999.90;999.90;;;10.50;91.20;;;;;;5035409;28;20025;-73
2023/08/08 03:48:11;;;;;;;1999.90;999.90;;;10.40;91.30;;;;;;5034924;28;20083;-72
2023/08/08 03:50:36;;;;;;;1999.90;999.90;;;10.40;91.50;;;;;;5035634;28;20037;-74
2023/08/08 03:53:02;;;;;;;1999.90;999.90;;;10.40;91.30;;;;;;5033077;28;20433;-73
2023/08/08 03:55:28;;;;;;;1999.90;999.90;;;10.30;91.60;;;;;;5037893;28;20037;-73
2023/08/08 03:57:54;;;;;;;1999.90;999.90;;;10.30;91.30;;;;;;5032649;28;20075;-73
2023/08/08 04:00:20;;;;;;;1999.90;999.90;;;10.40;91.50;;;;;;5036427;28;20052;-73
2023/08/08 04:02:45;;;;;;;1999.90;999.90;;;10.30;91.60;;;;;;5039427;28;20450;-72
2023/08/08 04:05:12;;;;;;;1999.90;999.90;;;10.40;91.60;;;;;;5036543;28;20037;-73
2023/08/08 04:07:37;;;;;;;1999.90;999.90;;;10.40;91.60;;;;;;5038399;28;20072;-74
2023/08/08 04:10:03;;;;;;;1999.90;999.90;;;10.40;91.90;;;;;;5033313;28;20064;-73
2023/08/08 04:12:29;;;;;;;1999.90;999.90;;;10.40;91.40;;;;;;5035076;28;20060;-73
2023/08/08 04:14:54;;;;;;;1999.90;999.90;;;10.30;91.50;;;;;;5043303;28;20083;-73
2023/08/08 04:17:20;;;;;;;1999.90;999.90;;;10.30;91.70;;;;;;5039237;28;20483;-73
2023/08/08 04:19:46;;;;;;;1999.90;999.90;;;10.40;91.60;;;;;;5037994;28;20036;-72
2023/08/08 04:22:11;;;;;;;1999.90;999.90;;;10.40;91.40;;;;;;5039692;28;20033;-74
2023/08/08 04:24:38;;;;;;;1999.90;999.90;;;10.40;91.50;;;;;;5038194;28;20029;-73
2023/08/08 04:27:04;;;;;;;1999.90;999.90;;;10.40;91.20;;;;;;5038789;28;20083;-73
2023/08/08 04:29:30;;;;;;;1999.90;999.90;;;10.40;91.00;;;;;;5051604;28;20037;-73
2023/08/08 04:31:55;;;;;;;1999.90;999.90;;;10.40;90.90;;;;;;5038113;28;20037;-72
2023/08/08 04:34:21;;;;;;;1999.90;999.90;;;10.40;91.00;;;;;;5040591;28;20843;-73
2023/08/08 04:36:47;;;;;;;1999.90;999.90;;;10.50;90.80;;;;;;5036023;28;20859;-73
2023/08/08 04:39:12;;;;;;;1999.90;999.90;;;10.50;90.80;;;;;;5037373;28;20025;-73
2023/08/08 04:41:38;;;;;;;1999.90;999.90;;;10.50;90.80;;;;;;5037095;28;20117;-74
2023/08/08 04:44:04;;;;;;;1999.90;999.90;;;10.60;90.80;;;;;;5035900;28;20112;-73
2023/08/08 04:46:29;;;;;;;1999.90;999.90;;;10.60;90.60;;;;;;5034448;28;20021;-73
2023/08/08 04:48:55;;;;;;;1999.90;999.90;;;10.60;90.60;;;;;;5033837;28;20037;-73
2023/08/08 04:51:21;;;;;;;1999.90;999.90;;;10.60;90.40;;;;;;5033212;28;20052;-72
2023/08/08 04:53:46;;;;;;;1999.90;999.90;;;10.70;90.40;;;;;;5040891;28;20460;-73
2023/08/08 04:56:12;;;;;;;1999.90;999.90;;;10.70;90.80;;;;;;5038829;28;20043;-73
2023/08/08 04:58:37;;;;;;;1999.90;999.90;;;10.80;90.70;;;;;;5041421;28;20514;-73
2023/08/08 05:01:03;;;;;;;1999.90;999.90;;;10.90;90.40;;;;;;5036000;28;20505;-73
2023/08/08 05:03:29;;;;;;;1999.90;999.90;;;10.80;90.10;;;;;;5035822;28;20021;-73
2023/08/08 05:05:54;;;;;;;1999.90;999.90;;;10.90;90.30;;;;;;5034848;28;20033;-72
2023/08/08 05:08:20;;;;;;;1999.90;999.90;;;10.90;90.20;;;;;;5038437;28;20026;-73
2023/08/08 05:10:46;;;;;;;1999.90;999.90;;;11.00;90.00;;;;;;5034953;28;20033;-73
2023/08/08 05:13:12;;;;;;;1999.90;999.90;;;11.00;90.20;;;;;;5035379;28;20117;-72
2023/08/08 05:15:38;;;;;;;1999.90;999.90;;;11.10;89.90;;;;;;5036871;28;20391;-72
2023/08/08 05:18:04;;;;;;;1999.90;999.90;;;11.20;89.80;;;;;;5036993;28;20037;-72
2023/08/08 05:20:30;;;;;;;1999.90;999.90;;;11.20;88.90;;;;;;5033289;28;20026;-73
2023/08/08 05:22:55;;;;;;;1999.90;999.90;;;11.30;88.80;;;;;;5036542;28;20044;-73
2023/08/08 05:25:21;;;;;;;1999.90;999.90;;;11.50;89.20;;;;;;5034765;28;20163;-73
2023/08/08 05:27:46;;;;;;;1999.90;999.90;;;11.40;88.40;;;;;;5028493;28;20121;-73
2023/08/08 05:30:12;;;;;;;1999.90;999.90;;;11.50;88.30;;;;;;5033277;28;20030;-73
2023/08/08 05:32:38;;;;;;;1999.90;999.90;;;11.50;87.80;;;;;;5011011;28;20033;-73
2023/08/08 05:35:04;;;;;;;1999.90;999.90;;;11.50;87.40;;;;;;5023078;28;20491;-73
2023/08/08 05:37:30;;;;;;;1999.90;999.90;;;11.60;88.40;;;;;;5032307;28;20046;-73
2023/08/08 05:39:56;;;;;;;1999.90;999.90;;;11.60;87.70;;;;;;5039381;28;20040;-72
2023/08/08 05:42:21;;;;;;;1999.90;999.90;;;11.60;88.10;;;;;;5036060;28;20032;-84
2023/08/08 05:44:47;;;;;;;1999.90;999.90;;;11.60;88.00;;;;;;5032898;28;20033;-79
2023/08/08 05:47:13;;;;;;;1999.90;999.90;;;11.60;88.60;;;;;;5033613;28;20034;-80
2023/08/08 05:49:41;;;;;;;1999.90;999.90;;;11.60;88.70;;;;;;5035946;28;20076;-79
2023/08/08 05:52:07;;;;;;;1999.90;999.90;;;11.50;88.10;;;;;;5033833;28;20116;-82
2023/08/08 05:54:33;;;;;;;1999.90;999.90;;;11.50;87.50;;;;;;5035262;28;20150;-78
2023/08/08 05:56:58;;;;;;;1999.90;999.90;;;11.50;88.40;;;;;;5031732;28;20064;-78
2023/08/08 05:59:24;;;;;;;1999.90;999.90;;;11.40;88.50;;;;;;5034485;28;20055;-78
2023/08/08 06:01:50;;;;;;;1999.90;999.90;;;11.50;87.80;;;;;;5067365;28;20025;-79
2023/08/08 06:04:15;;;;;;;1999.90;999.90;;;11.60;88.40;;;;;;5034585;28;20156;-77
2023/08/08 06:06:41;;;;;;;1999.90;999.90;;;11.70;87.50;;;;;;5031100;28;20369;-79
2023/08/08 06:09:08;;;;;;;1999.90;999.90;;;11.70;87.30;;;;;;5029839;28;20052;-79
2023/08/08 06:11:34;;;;;;;1999.90;999.90;;;11.80;87.80;;;;;;5038875;28;20044;-79
2023/08/08 06:14:00;;;;;;;1999.90;999.90;;;11.90;87.50;;;;;;5040863;28;20672;-81
2023/08/08 06:16:25;;;;;;;1999.90;999.90;;;12.00;86.10;;;;;;5036457;28;20029;-78
2023/08/08 06:18:52;;;;;;;1999.90;999.90;;;12.00;85.40;;;;;;5034965;28;20037;-76
2023/08/08 06:21:19;;;;;;;1999.90;999.90;;;12.10;85.40;;;;;;5013855;28;20030;-78
2023/08/08 06:23:46;;;;;;;1999.90;999.90;;;12.10;85.40;;;;;;5033318;28;20029;-80
2023/08/08 06:26:12;;;;;;;1999.90;999.90;;;12.10;85.90;;;;;;5031740;28;20430;-79
2023/08/08 06:28:37;;;;;;;1999.90;999.90;;;12.20;85.20;;;;;;5032126;28;20113;-86
2023/08/08 06:31:03;;;;;;;1999.90;999.90;;;12.30;84.50;;;;;;5035319;28;20588;-81
2023/08/08 06:33:29;;;;;;;1999.90;999.90;;;12.40;85.50;;;;;;5033513;28;20061;-80
2023/08/08 06:35:56;;;;;;;1999.90;999.90;;;12.50;83.20;;;;;;5032648;28;20129;-78
2023/08/08 06:38:21;;;;;;;1999.90;999.90;;;12.60;82.60;;;;;;5036251;28;20037;-81
2023/08/08 06:40:49;;;;;;;1999.90;999.90;;;12.70;82.30;;;;;;5028280;28;20025;-78
2023/08/08 06:43:15;;;;;;;1999.90;999.90;;;12.70;80.90;;;;;;5030605;28;20037;-78
2023/08/08 06:45:40;;;;;;;1999.90;999.90;;;12.80;81.20;;;;;;5027988;28;20021;-79
2023/08/08 06:48:07;;;;;;;1999.90;999.90;;;13.00;82.70;;;;;;5031111;28;20044;-79
2023/08/08 06:50:33;;;;;;;1999.90;999.90;;;13.10;80.40;;;;;;5035370;28;20136;-79
2023/08/08 06:52:59;;;;;;;1999.90;999.90;;;13.20;80.30;;;;;;5036400;28;20120;-82
2023/08/08 06:55:24;;;;;;;1999.90;999.90;;;13.30;80.50;;;;;;5053085;28;20049;-81
2023/08/08 06:57:50;;;;;;;1999.90;999.90;;;13.40;79.70;;;;;;5021601;28;20033;-79
2023/08/08 07:00:16;;;;;;;1999.90;999.90;;;13.40;79.60;;;;;;5035115;28;20026;-82
2023/08/08 07:02:42;;;;;;;1999.90;999.90;;;13.60;79.80;;;;;;5038283;28;20118;-79
2023/08/08 07:05:10;;;;;;;1999.90;999.90;;;13.70;79.80;;;;;;5035185;28;20055;-79
2023/08/08 07:07:35;;;;;;;1999.90;999.90;;;13.90;79.60;;;;;;5034507;28;20033;-79
2023/08/08 07:10:03;;;;;;;1999.90;999.90;;;14.10;78.30;;;;;;5039843;28;20044;-78
2023/08/08 07:12:29;;;;;;;1999.90;999.90;;;14.20;77.20;;;;;;5035944;28;20543;-82
2023/08/08 07:14:54;;;;;;;1999.90;999.90;;;14.40;76.40;;;;;;5031420;28;20128;-82
2023/08/08 07:17:20;;;;;;;1999.90;999.90;;;14.50;76.00;;;;;;5031351;28;20120;-81
2023/08/08 07:19:46;;;;;;;1999.90;999.90;;;14.60;76.70;;;;;;5063344;28;20030;-81
2023/08/08 07:22:11;;;;;;;1999.90;999.90;;;14.80;76.40;;;;;;5031048;28;20057;-81
2023/08/08 07:24:38;;;;;;;1999.90;999.90;;;14.80;74.20;;;;;;5031351;28;20099;-79
2023/08/08 07:27:04;;;;;;;1999.90;999.90;;;14.80;74.50;;;;;;5030541;28;20056;-78
2023/08/08 07:29:30;;;;;;;1999.90;999.90;;;15.10;75.50;;;;;;5032627;28;20052;-82
2023/08/08 07:31:58;;;;;;;1999.90;999.90;;;15.30;74.80;;;;;;5039454;28;20125;-81
2023/08/08 07:34:24;;;;;;;1999.90;999.90;;;15.50;72.60;;;;;;5037831;28;20029;-80
2023/08/08 07:36:50;;;;;;;1999.90;999.90;;;15.70;69.80;;;;;;5033757;28;20080;-79
2023/08/08 07:39:16;;;;;;;1999.90;999.90;;;15.80;70.00;;;;;;5035179;28;20060;-80
2023/08/08 07:41:41;;;;;;;1999.90;999.90;;;15.80;67.60;;;;;;5032936;28;20041;-81
2023/08/08 07:44:07;;;;;;;1999.90;999.90;;;15.90;69.90;;;;;;5031374;28;20379;-80
2023/08/08 07:46:33;;;;;;;1999.90;999.90;;;15.80;70.50;;;;;;5052599;28;20029;-79
2023/08/08 07:49:03;;;;;;;1999.90;999.90;;;15.60;69.40;;;;;;5034627;28;20553;-82
2023/08/08 07:51:29;;;;;;;1999.90;999.90;;;15.60;72.60;;;;;;5033638;28;20033;-81
2023/08/08 07:53:54;;;;;;;1999.90;999.90;;;15.60;69.30;;;;;;5031574;28;20037;-80
2023/08/08 07:56:20;;;;;;;1999.90;999.90;;;15.40;69.30;;;;;;5033824;28;20129;-78
2023/08/08 07:58:45;;;;;;;1999.90;999.90;;;15.50;69.50;;;;;;5030663;28;20116;-79
2023/08/08 08:01:13;;;;;;;1999.90;999.90;;;15.60;68.40;;;;;;5033191;28;20235;-80
2023/08/08 08:03:39;;;;;;;1999.90;999.90;;;15.80;70.60;;;;;;5031437;28;20025;-79
2023/08/08 08:06:05;;;;;;;1999.90;999.90;;;15.90;67.20;;;;;;5034003;28;20442;-81
2023/08/08 08:08:31;;;;;;;1999.90;999.90;;;16.10;66.60;;;;;;5030254;28;20033;-81
2023/08/08 08:10:56;;;;;;;1999.90;999.90;;;16.20;66.20;;;;;;5037290;28;20037;-81
2023/08/08 08:13:22;;;;;;;1999.90;999.90;;;16.10;66.60;;;;;;5040893;28;20056;-81
2023/08/08 08:15:48;;;;;;;1999.90;999.90;;;16.30;68.60;;;;;;5033862;28;20389;-80
2023/08/08 08:18:16;;;;;;;1999.90;999.90;;;16.70;67.90;;;;;;5031583;28;20037;-82
2023/08/08 08:20:43;;;;;;;1999.90;999.90;;;16.80;64.10;;;;;;5034144;28;20033;-79
2023/08/08 08:23:10;;;;;;;1999.90;999.90;;;16.70;66.70;;;;;;5032903;28;20036;-80
2023/08/08 08:25:36;;;;;;;1999.90;999.90;;;16.80;65.20;;;;;;5033100;28;20041;-81
2023/08/08 08:28:02;;;;;;;1999.90;999.90;;;16.90;64.70;;;;;;5029528;28;20041;-80
2023/08/08 08:30:27;;;;;;;1999.90;999.90;;;16.90;63.00;;;;;;5010384;28;20515;-79
2023/08/08 08:32:53;;;;;;;1999.90;999.90;;;17.10;65.90;;;;;;5032738;28;20059;-79
2023/08/08 08:35:20;;;;;;;1999.90;999.90;;;17.20;63.40;;;;;;5032559;28;20112;-79
2023/08/08 08:37:46;;;;;;;1999.90;999.90;;;17.30;64.90;;;;;;5030383;28;20046;-82
2023/08/08 08:40:12;;;;;;;1999.90;999.90;;;17.50;64.20;;;;;;5033300;28;20044;-80
2023/08/08 08:42:40;;;;;;;1999.90;999.90;;;17.90;63.70;;;;;;5018019;28;20889;-78
2023/08/08 08:45:11;;;;;;;1999.90;999.90;;;17.90;61.60;;;;;;5033823;28;20030;-80
2023/08/08 08:47:39;;;;;;;1999.90;999.90;;;17.80;57.10;;;;;;5034690;28;20033;-80
2023/08/08 08:50:05;;;;;;;1999.90;999.90;;;18.30;58.80;;;;;;5038920;28;20041;-79
2023/08/08 08:52:32;;;;;;;1999.90;999.90;;;18.50;54.40;;;;;;5036562;28;20444;-79
2023/08/08 08:54:58;;;;;;;1999.90;999.90;;;18.40;54.40;;;;;;5039215;28;20025;-78
2023/08/08 08:57:25;;;;;;;1999.90;999.90;;;18.30;54.10;;;;;;5040126;28;20036;-78
2023/08/08 08:59:51;;;;;;;1999.90;999.90;;;18.40;54.90;;;;;;5020201;28;20484;-80
2023/08/08 09:02:18;;;;;;;1999.90;999.90;;;18.60;57.30;;;;;;5034986;28;20487;-80
2023/08/08 09:04:45;;;;;;;1999.90;999.90;;;18.50;52.20;;;;;;5037047;28;20122;-81
2023/08/08 09:07:12;;;;;;;1999.90;999.90;;;18.60;53.90;;;;;;5037477;28;20108;-80
2023/08/08 09:09:38;;;;;;;1999.90;999.90;;;18.70;53.00;;;;;;5036397;28;20033;-80
2023/08/08 09:12:05;;;;;;;1999.90;999.90;;;19.00;53.80;;;;;;5039757;28;20030;-79
2023/08/08 09:14:31;;;;;;;1999.90;999.90;;;19.20;51.80;;;;;;5033653;28;20036;-79
2023/08/08 09:16:57;;;;;;;1999.90;999.90;;;19.40;51.80;;;;;;5018263;28;20511;-78
2023/08/08 09:19:23;;;;;;;1999.90;999.90;;;19.50;51.00;;;;;;5033994;28;20087;-79
2023/08/08 09:21:51;;;;;;;1999.90;999.90;;;19.30;49.50;;;;;;5035028;28;20084;-79
2023/08/08 09:24:17;;;;;;;1999.90;999.90;;;19.50;51.20;;;;;;5017415;28;20432;-78
2023/08/08 09:26:44;;;;;;;1999.90;999.90;;;19.50;46.10;;;;;;5015015;28;20037;-79
2023/08/08 09:29:12;;;;;;;1999.90;999.90;;;19.60;46.80;;;;;;5040391;28;20026;-81
2023/08/08 09:31:58;;;;;;;1999.90;999.90;;;19.60;45.30;;;;;;5037690;28;20499;-79
2023/08/08 09:34:28;;;;;;;1999.90;999.90;;;19.40;46.00;;;;;;5029154;28;20141;-78
2023/08/08 09:36:55;;;;;;;1999.90;999.90;;;19.50;46.70;;;;;;5031809;28;20046;-77
2023/08/08 09:39:21;;;;;;;1999.90;999.90;;;19.60;50.10;;;;;;4997609;28;20026;-78
2023/08/08 09:41:47;;;;;;;1999.90;999.90;;;19.40;46.20;;;;;;5039122;28;20021;-77
2023/08/08 09:44:13;;;;;;;1999.90;999.90;;;19.40;48.90;;;;;;5041565;28;20124;-78
2023/08/08 09:46:39;;;;;;;1999.90;999.90;;;19.80;45.90;;;;;;5037877;28;20527;-77
2023/08/08 09:49:06;;;;;;;1999.90;999.90;;;19.90;47.70;;;;;;5034124;28;20125;-78
2023/08/08 09:51:33;;;;;;;1999.90;999.90;;;20.10;46.60;;;;;;5032022;28;20045;-78
2023/08/08 09:53:59;;;;;;;1999.90;999.90;;;20.40;47.40;;;;;;5031721;28;20108;-78
2023/08/08 09:56:26;;;;;;;1999.90;999.90;;;20.50;45.70;;;;;;5033219;28;20034;-78
2023/08/08 09:58:52;;;;;;;1999.90;999.90;;;20.70;43.00;;;;;;5036269;28;20226;-77
2023/08/08 10:01:20;;;;;;;1999.90;999.90;;;20.60;46.50;;;;;;5013778;28;20029;-77
2023/08/08 10:03:46;;;;;;;1999.90;999.90;;;20.40;42.40;;;;;;5034434;28;20049;-77
2023/08/08 10:06:12;;;;;;;1999.90;999.90;;;20.50;43.20;;;;;;5035842;28;20033;-78
2023/08/08 10:08:38;;;;;;;1999.90;999.90;;;20.50;42.60;;;;;;5034213;28;20033;-77
2023/08/08 10:11:07;;;;;;;1999.90;999.90;;;20.80;45.20;;;;;;5037472;28;20036;-77
2023/08/08 10:13:34;;;;;;;1999.90;999.90;;;20.50;43.50;;;;;;5038990;28;20036;-77
2023/08/08 10:16:07;;;;;;;1999.90;999.90;;;20.80;41.80;;;;;;5019313;28;20034;-77
2023/08/08 10:18:33;;;;;;;1999.90;999.90;;;21.20;45.80;;;;;;5037820;28;20032;-77
2023/08/08 10:20:59;;;;;;;1999.90;999.90;;;20.90;39.30;;;;;;5035777;28;20395;-77
2023/08/08 10:23:24;;;;;;;1999.90;999.90;;;21.10;42.70;;;;;;5036318;28;20033;-77
2023/08/08 10:25:52;;;;;;;1999.90;999.90;;;21.30;40.80;;;;;;5032496;28;20426;-77
2023/08/08 10:28:20;;;;;;;1999.90;999.90;;;21.30;38.30;;;;;;5035063;28;20022;-76
2023/08/08 10:30:54;;;;;;;1999.90;999.90;;;21.70;38.00;;;;;;5033048;28;20033;-77
2023/08/08 10:33:27;;;;;;;1999.90;999.90;;;21.90;38.60;;;;;;5032449;28;20033;-77
2023/08/08 10:36:06;;;;;;;1999.90;999.90;;;21.30;40.00;;;;;;5032560;28;21341;-78
2023/08/08 10:38:43;;;;;;;1999.90;999.90;;;20.80;41.10;;;;;;5029619;28;20041;-75
2023/08/08 10:41:14;;;;;;;1999.90;999.90;;;21.40;42.00;;;;;;5034203;28;20056;-78
2023/08/08 10:43:48;;;;;;;1999.90;999.90;;;21.70;39.60;;;;;;5029646;28;20036;-75
2023/08/08 10:46:32;;;;;;;1999.90;999.90;;;22.10;38.40;;;;;;5036619;28;20071;-75
2023/08/08 10:49:01;;;;;;;1999.90;999.90;;;22.30;37.30;;;;;;5036726;28;20029;-75
2023/08/08 10:51:39;;;;;;;1999.90;999.90;;;22.00;38.10;;;;;;5040268;28;20040;-75
2023/08/08 10:54:06;;;;;;;1999.90;999.90;;;22.30;41.00;;;;;;5034066;28;20096;-76
2023/08/08 10:56:31;;;;;;;1999.90;999.90;;;21.40;36.30;;;;;;5035841;28;20116;-75
2023/08/08 10:58:57;;;;;;;1999.90;999.90;;;22.00;37.40;;;;;;5034952;28;20123;-73
2023/08/08 11:01:26;;;;;;;1999.90;999.90;;;22.10;38.90;;;;;;5033784;28;20032;-76
2023/08/08 11:03:52;;;;;;;1999.90;999.90;;;22.40;35.10;;;;;;5033537;28;20496;-77
2023/08/08 11:06:19;;;;;;;1999.90;999.90;;;22.40;34.90;;;;;;5032255;28;20033;-76
2023/08/08 11:08:44;;;;;;;1999.90;999.90;;;22.70;37.60;;;;;;5049201;28;20035;-74
2023/08/08 11:11:12;;;;;;;1999.90;999.90;;;23.00;35.10;;;;;;5035612;28;20029;-75
2023/08/08 11:13:38;;;;;;;1999.90;999.90;;;23.70;36.70;;;;;;5034580;28;20032;-75
2023/08/08 11:16:03;;;;;;;1999.90;999.90;;;24.10;33.10;;;;;;5030849;28;20121;-77
2023/08/08 11:18:29;;;;;;;1999.90;999.90;;;23.50;35.80;;;;;;5031732;28;20033;-77
2023/08/08 11:20:55;;;;;;;1999.90;999.90;;;23.60;34.00;;;;;;5033711;28;20025;-77
2023/08/08 11:23:21;;;;;;;1999.90;999.90;;;22.80;34.90;;;;;;5030448;28;20040;-78
2023/08/08 11:25:49;;;;;;;1999.90;999.90;;;23.00;34.30;;;;;;5033936;28;20049;-78
2023/08/08 11:28:15;;;;;;;1999.90;999.90;;;23.80;33.50;;;;;;5034608;28;20033;-78
2023/08/08 11:30:43;;;;;;;1999.90;999.90;;;24.70;33.80;;;;;;5038575;28;20086;-78
2023/08/08 11:33:12;;;;;;;1999.90;999.90;;;24.40;30.00;;;;;;5037061;28;20040;-79
2023/08/08 11:35:43;;;;;;;1999.90;999.90;;;25.40;32.90;;;;;;5035145;28;20137;-78
2023/08/08 11:38:10;;;;;;;1999.90;999.90;;;25.00;29.20;;;;;;5039313;28;20029;-78
2023/08/08 11:40:36;;;;;;;1999.90;999.90;;;24.40;30.70;;;;;;5031243;28;20088;-78
2023/08/08 11:43:02;;;;;;;1999.90;999.90;;;23.90;33.20;;;;;;5060592;28;20575;-78
2023/08/08 11:45:28;;;;;;;1999.90;999.90;;;23.20;36.50;;;;;;5033866;28;20029;-79
2023/08/08 11:47:55;;;;;;;1999.90;999.90;;;23.60;34.10;;;;;;5031906;28;20034;-79
2023/08/08 11:50:23;;;;;;;1999.90;999.90;;;22.50;32.60;;;;;;5032783;28;20036;-79
2023/08/08 11:52:50;;;;;;;1999.90;999.90;;;22.20;34.10;;;;;;5034929;28;20044;-79
2023/08/08 11:55:16;;;;;;;1999.90;999.90;;;22.10;34.70;;;;;;5034107;28;20068;-79